• Join FlightAware (Why Join?)
  • Login
  • US Flag 
03:44PM EDT


 

Airport Tracker/Info


-or-


 

Live Flight TrackerFlight Track Log ✈ UAL4336 ✈ 20-May-2013 ✈ KIAH - KBTR

Flight Track Log - Related Links

Times and Time Zones

All times are in EDT time to prevent confusion due to time zone crossing. See the UAL4336 flight status page for this flight to view local times or setup timezone preferences in your user account.

Time Position Orientation Groundspeed Altitude Reporting Facility
EDT Latitude Longitude Course Direction KTS MPH feet Rate Location/Type
09:59AM 29.9661 -95.3456 90° East 138 159 700  Level Houston Center
09:59AM 29.9567 -95.3344 134° Southeast 152 175 1,500 1,980 Climbing Houston Center
10:00AM 29.9225 -95.2833 128° Southeast 205 236 3,400 1,680 Climbing Houston Center
10:01AM 29.9081 -95.2644 131° Southeast 206 237 3,900 660 Climbing Houston Center
10:01AM 29.8792 -95.2233 129° Southeast 246 283 4,100 960 Climbing Houston Center
10:02AM 29.9833 -94.9973 90° East  Level FlightAware Approximate
10:02AM 29.8653 -95.2022 127° Southeast 233 268 4,900  Level Houston Center
10:02AM 29.8472 -95.1503 112° Southeast 271 312 6,700 2,280 Climbing Houston Center
10:03AM 29.9834 -94.8853 90° East  Level FlightAware Approximate
10:03AM 29.8444 -95.1219 96° East 269 310 7,300  Level Houston Center
10:03AM 29.8472 -95.0611 87° East 300 345 8,700 2,100 Climbing Houston Center
10:04AM 29.9834 -94.7733 90° East  Level FlightAware Approximate
10:04AM 29.8550 -95.0289 74° East 295 339 9,500  Level Houston Center
10:05AM 29.8739 -94.9333 77° East 305 351 10,700 1,200 Climbing Houston Center
10:06AM 29.8950 -94.8225 78° East 347 399 12,100 1,560 Climbing Houston Center
10:07AM 29.9214 -94.6881 77° East 358 412 14,000 1,620 Climbing Houston Center
10:08AM 29.9433 -94.5747 77° East 362 417 15,500 1,440 Climbing Houston Center
10:09AM 29.9672 -94.4564 77° East 369 425 17,100 1,500 Climbing Houston Center
10:10AM 29.9894 -94.3400 78° East 372 428 18,600 900 Climbing Houston Center
10:11AM 30.0081 -94.2178 80° East 386 444 19,000 180 Climbing Houston Center
10:12AM 30.0244 -94.0833 82° East 421 484 19,000  Level Houston Center
10:13AM 30.0447 -93.9178 82° East 435 501 19,000  Level Houston Center
10:14AM 30.0606 -93.7842 82° East 426 490 19,000  Level Houston Center
10:15AM 30.0758 -93.6525 82° East 421 484 19,000  Level Houston Center
10:16AM 30.0914 -93.5214 82° East 418 481 19,000  Level Houston Center
10:17AM 30.1064 -93.3892 82° East 421 484 19,000  Level Houston Center
10:18AM 30.1253 -93.2319 82° East 418 481 19,000  Level Houston Center
10:19AM 30.1411 -93.1006 82° East 418 481 19,000  Level Houston Center
10:20AM 30.1664 -92.9694 77° East 421 484 19,000  Level Houston Center
10:21AM 30.1939 -92.8397 76° East 418 481 19,000  Level Houston Center
10:22AM 30.2250 -92.6819 77° East 421 484 19,000  Level Houston Center
10:24AM 30.2508 -92.5508 77° East 420 483 19,000  Level Houston Center
10:25AM 30.2747 -92.4203 78° East 419 482 19,000  Level Houston Center
10:26AM 30.2972 -92.2981 78° East 418 481 19,000 -600 Level Houston Center
10:27AM 30.3272 -92.1414 77° East 418 481 17,800 -1,500 Descending Houston Center
10:28AM 30.3514 -92.0144 78° East 408 470 15,900 -1,860 Descending Houston Center
10:29AM 30.3744 -91.8933 78° East 391 450 14,000 -1,920 Descending Houston Center
10:30AM 30.3967 -91.7769 77° East 377 434 12,000 -1,440 Descending Houston Center
10:31AM 30.4203 -91.6533 77° East 357 411 11,000 -960 Descending Houston Center
10:32AM 30.4514 -91.5672 67° East 303 349 10,100 -1,920 Descending Houston Center
10:33AM 30.5156 -91.5014 41° Northeast 284 327 7,100 -2,700 Descending Houston Center
10:34AM 30.5733 -91.4442 40° Northeast 277 319 4,600 -1,860 Descending Houston Center
10:35AM 30.6275 -91.3761 47° Northeast 273 314 3,300 -1,260 Descending Houston Center